createdAt,value
2018-12-16T00:02:22.930Z,0.80
2018-12-16T00:04:51.646Z,0.80
2018-12-16T00:07:20.434Z,0.70
2018-12-16T00:09:49.061Z,0.80
2018-12-16T00:12:18.053Z,0.80
2018-12-16T00:14:46.757Z,0.80
2018-12-16T00:17:15.561Z,0.80
2018-12-16T00:19:44.340Z,0.80
2018-12-16T00:22:13.132Z,0.70
2018-12-16T00:24:42.012Z,0.70
2018-12-16T00:27:12.296Z,0.70
2018-12-16T00:29:41.207Z,0.70
2018-12-16T00:32:09.918Z,0.70
2018-12-16T00:34:38.903Z,0.70
2018-12-16T00:37:07.721Z,0.80
2018-12-16T00:39:36.434Z,0.80
2018-12-16T00:42:05.164Z,0.80
2018-12-16T00:44:33.837Z,0.80
2018-12-16T00:47:02.575Z,0.80
2018-12-16T00:49:31.452Z,0.70
2018-12-16T00:52:00.231Z,0.70
2018-12-16T00:54:29.014Z,0.70
2018-12-16T00:56:57.803Z,0.70
2018-12-16T00:59:26.553Z,0.70
2018-12-16T01:01:55.313Z,0.70
2018-12-16T01:04:24.075Z,0.70
2018-12-16T01:06:52.865Z,0.70
2018-12-16T01:09:21.619Z,0.70
2018-12-16T01:11:50.385Z,0.70
2018-12-16T01:14:19.178Z,0.70
2018-12-16T01:16:47.916Z,0.70
2018-12-16T01:19:16.695Z,0.70
2018-12-16T01:21:45.467Z,0.70
2018-12-16T01:24:14.179Z,0.70
2018-12-16T01:26:42.854Z,0.70
2018-12-16T01:29:11.545Z,0.70
2018-12-16T01:31:40.336Z,0.70
2018-12-16T01:34:09.073Z,0.70
2018-12-16T01:36:37.796Z,0.70
2018-12-16T01:39:07.450Z,0.70
2018-12-16T01:41:36.205Z,0.70
2018-12-16T01:44:04.975Z,0.70
2018-12-16T01:46:33.866Z,0.60
2018-12-16T01:49:02.562Z,0.60
2018-12-16T01:51:31.273Z,0.70
2018-12-16T01:54:00.089Z,0.60
2018-12-16T01:56:28.884Z,0.60
2018-12-16T01:58:57.621Z,0.70
2018-12-16T02:01:26.400Z,0.70
2018-12-16T02:03:55.172Z,0.60
2018-12-16T02:06:23.949Z,0.60
2018-12-16T02:08:52.705Z,0.60
2018-12-16T02:11:21.420Z,0.60
2018-12-16T02:13:50.181Z,0.70
2018-12-16T02:16:19.030Z,0.70
2018-12-16T02:18:47.806Z,0.70
2018-12-16T02:21:16.669Z,0.70
2018-12-16T02:23:45.410Z,0.70
2018-12-16T02:26:14.110Z,0.70
2018-12-16T02:28:42.908Z,0.70
2018-12-16T02:31:11.590Z,0.70
2018-12-16T02:33:40.250Z,0.70
2018-12-16T02:36:08.988Z,0.70
2018-12-16T02:38:37.781Z,0.70
2018-12-16T02:41:06.576Z,0.70
2018-12-16T02:43:35.360Z,0.70
2018-12-16T02:46:04.161Z,0.70
2018-12-16T02:48:32.876Z,0.70
2018-12-16T02:51:01.650Z,0.60
2018-12-16T02:53:30.365Z,0.70
2018-12-16T02:55:59.167Z,0.60
2018-12-16T02:58:27.973Z,0.60
2018-12-16T03:00:56.751Z,0.60
2018-12-16T03:03:25.476Z,0.60
2018-12-16T03:05:54.208Z,0.60
2018-12-16T03:08:22.932Z,0.60
2018-12-16T03:10:51.721Z,0.70
2018-12-16T03:13:20.505Z,0.60
2018-12-16T03:15:49.289Z,0.60
2018-12-16T03:18:18.001Z,0.60
2018-12-16T03:20:46.658Z,0.60
2018-12-16T03:23:15.556Z,0.60
2018-12-16T03:25:44.574Z,0.60
2018-12-16T03:28:13.368Z,0.60
2018-12-16T03:30:42.249Z,0.60
2018-12-16T03:33:11.100Z,0.60
2018-12-16T03:35:39.816Z,0.60
2018-12-16T03:38:08.568Z,0.50
2018-12-16T03:40:37.362Z,0.50
2018-12-16T03:43:06.122Z,0.50
2018-12-16T03:45:34.835Z,0.50
2018-12-16T03:48:03.643Z,0.50
2018-12-16T03:50:32.457Z,0.50
2018-12-16T03:53:01.210Z,0.50
2018-12-16T03:55:29.914Z,0.50
2018-12-16T03:57:58.694Z,0.50
2018-12-16T04:00:27.413Z,0.60
2018-12-16T04:02:56.084Z,0.60
2018-12-16T04:05:24.832Z,0.50
2018-12-16T04:07:53.606Z,0.50
2018-12-16T04:10:22.386Z,0.50
2018-12-16T04:12:51.164Z,0.50
2018-12-16T04:15:20.088Z,0.50
2018-12-16T04:17:48.795Z,0.50
2018-12-16T04:20:17.521Z,0.50
2018-12-16T04:22:46.263Z,0.50
2018-12-16T04:25:14.977Z,0.50
2018-12-16T04:27:43.697Z,0.50
2018-12-16T04:30:12.479Z,0.50
2018-12-16T04:32:41.139Z,0.50
2018-12-16T04:35:09.935Z,0.50
2018-12-16T04:37:38.720Z,0.40
2018-12-16T04:40:07.514Z,0.40
2018-12-16T04:42:36.234Z,0.40
2018-12-16T04:45:05.509Z,0.40
2018-12-16T04:47:34.343Z,0.40
2018-12-16T04:50:03.303Z,0.40
2018-12-16T04:52:32.145Z,0.40
2018-12-16T04:55:00.821Z,0.40
2018-12-16T04:57:29.545Z,0.40
2018-12-16T04:59:58.260Z,0.40
2018-12-16T05:02:26.971Z,0.40
2018-12-16T05:04:55.669Z,0.40
2018-12-16T05:07:24.437Z,0.50
2018-12-16T05:09:53.207Z,0.50
2018-12-16T05:12:21.984Z,0.40
2018-12-16T05:14:50.698Z,0.40
2018-12-16T05:17:19.343Z,0.40
2018-12-16T05:19:48.081Z,0.40
2018-12-16T05:22:16.829Z,0.50
2018-12-16T05:24:45.483Z,0.50
2018-12-16T05:27:14.144Z,0.50
2018-12-16T05:29:42.850Z,0.40
2018-12-16T05:32:11.662Z,0.40
2018-12-16T05:34:40.322Z,0.40
2018-12-16T05:37:09.084Z,0.40
2018-12-16T05:39:37.802Z,0.40
2018-12-16T05:42:06.942Z,0.30
2018-12-16T05:44:35.652Z,0.40
2018-12-16T05:47:04.358Z,0.30
2018-12-16T05:49:33.086Z,0.40
2018-12-16T05:52:01.850Z,0.40
2018-12-16T05:54:30.650Z,0.30
2018-12-16T05:56:59.440Z,0.30
2018-12-16T05:59:28.244Z,0.40
2018-12-16T06:01:57.008Z,0.30
2018-12-16T06:04:25.718Z,0.30
2018-12-16T06:06:54.455Z,0.30
2018-12-16T06:09:23.239Z,0.40
2018-12-16T06:11:51.949Z,0.30
2018-12-16T06:14:20.787Z,0.40
2018-12-16T06:16:49.615Z,0.40
2018-12-16T06:19:18.339Z,0.30
2018-12-16T06:21:47.077Z,0.40
2018-12-16T06:24:15.763Z,0.40
2018-12-16T06:26:44.467Z,0.40
2018-12-16T06:29:13.193Z,0.40
2018-12-16T06:31:42.024Z,0.40
2018-12-16T06:34:10.743Z,0.40
2018-12-16T06:36:39.521Z,0.40
2018-12-16T06:39:08.236Z,0.40
2018-12-16T06:41:36.959Z,0.40
2018-12-16T06:44:05.681Z,0.40
2018-12-16T06:46:34.486Z,0.40
2018-12-16T06:49:03.266Z,0.40
2018-12-16T06:51:32.077Z,0.40
2018-12-16T06:54:02.660Z,0.40
2018-12-16T06:56:31.505Z,0.30
2018-12-16T06:59:00.235Z,0.40
2018-12-16T07:01:28.954Z,0.40
2018-12-16T07:03:57.623Z,0.30
2018-12-16T07:06:26.329Z,0.40
2018-12-16T07:08:54.991Z,0.40
2018-12-16T07:11:23.652Z,0.40
2018-12-16T07:13:52.455Z,0.30
2018-12-16T07:16:21.239Z,0.30
2018-12-16T07:18:49.914Z,0.30
2018-12-16T07:21:18.691Z,0.30
2018-12-16T07:23:47.355Z,0.40
2018-12-16T07:26:16.095Z,0.40
2018-12-16T07:28:44.883Z,0.40
2018-12-16T07:31:13.744Z,0.40
2018-12-16T07:33:42.521Z,0.40
2018-12-16T07:36:11.282Z,0.50
2018-12-16T07:38:39.973Z,0.50
2018-12-16T07:41:08.742Z,0.50
2018-12-16T07:43:37.424Z,0.40
2018-12-16T07:46:06.138Z,0.50
2018-12-16T07:48:35.005Z,0.40
2018-12-16T07:51:03.802Z,0.40
2018-12-16T07:53:32.528Z,0.40
2018-12-16T07:56:01.332Z,0.40
2018-12-16T07:58:30.072Z,0.40
2018-12-16T08:00:58.781Z,0.40
2018-12-16T08:03:27.466Z,0.40
2018-12-16T08:05:56.174Z,0.40
2018-12-16T08:08:24.978Z,0.40
2018-12-16T08:10:53.694Z,0.40
2018-12-16T08:13:22.345Z,0.40
2018-12-16T08:15:51.082Z,0.40
2018-12-16T08:18:19.746Z,0.40
2018-12-16T08:20:48.760Z,0.40
2018-12-16T08:23:17.531Z,0.40
2018-12-16T08:25:46.356Z,0.40
2018-12-16T08:28:15.173Z,0.40
2018-12-16T08:30:43.969Z,0.40
2018-12-16T08:33:12.698Z,0.40
2018-12-16T08:35:41.465Z,0.40
2018-12-16T08:38:10.243Z,0.40
2018-12-16T08:40:39.018Z,0.40
2018-12-16T08:43:07.739Z,0.40
2018-12-16T08:45:36.561Z,0.40
2018-12-16T08:48:05.297Z,0.40
2018-12-16T08:50:34.019Z,0.40
2018-12-16T08:53:02.759Z,0.40
2018-12-16T08:55:31.529Z,0.40
2018-12-16T08:58:00.313Z,0.40
2018-12-16T09:00:29.070Z,0.40
2018-12-16T09:02:57.878Z,0.40
2018-12-16T09:05:26.567Z,0.40
2018-12-16T09:07:55.290Z,0.50
2018-12-16T09:10:24.009Z,0.50
2018-12-16T09:12:52.747Z,0.50
2018-12-16T09:15:21.516Z,0.50
2018-12-16T09:17:50.174Z,0.50
2018-12-16T09:20:18.958Z,0.40
2018-12-16T09:22:47.752Z,0.40
2018-12-16T09:25:16.606Z,0.50
2018-12-16T09:27:45.454Z,0.50
2018-12-16T09:30:14.213Z,0.50
2018-12-16T09:32:42.977Z,0.50
2018-12-16T09:35:11.753Z,0.50
2018-12-16T09:37:40.694Z,0.40
2018-12-16T09:40:09.535Z,0.50
2018-12-16T09:42:38.327Z,0.50
2018-12-16T09:45:07.217Z,0.50
2018-12-16T09:47:36.394Z,0.50
2018-12-16T09:50:05.270Z,0.50
2018-12-16T09:52:34.139Z,0.50
2018-12-16T09:55:03.023Z,0.50
2018-12-16T09:57:31.771Z,0.50
2018-12-16T10:00:00.581Z,0.60
2018-12-16T10:02:29.274Z,0.60
2018-12-16T10:04:58.114Z,0.60
2018-12-16T10:07:26.949Z,0.60
2018-12-16T10:09:55.615Z,0.60
2018-12-16T10:12:24.529Z,0.60
2018-12-16T10:14:53.231Z,0.60
2018-12-16T10:17:22.021Z,0.60
2018-12-16T10:19:50.747Z,0.60
2018-12-16T10:22:19.483Z,0.60
2018-12-16T10:24:51.454Z,0.60
2018-12-16T10:27:19.015Z,0.60
2018-12-16T10:29:48.046Z,0.60
2018-12-16T10:32:16.901Z,0.60
2018-12-16T10:34:45.699Z,0.60
2018-12-16T10:37:14.484Z,0.60
2018-12-16T10:39:43.729Z,0.60
2018-12-16T10:42:12.596Z,0.60
2018-12-16T10:44:41.446Z,0.60
2018-12-16T10:47:10.148Z,0.70
2018-12-16T10:49:38.884Z,0.70
2018-12-16T10:52:07.676Z,0.70
2018-12-16T10:54:36.402Z,0.70
2018-12-16T10:57:05.118Z,0.70
2018-12-16T10:59:33.796Z,0.70
2018-12-16T11:02:02.622Z,0.70
2018-12-16T11:04:31.384Z,0.70
2018-12-16T11:07:00.112Z,0.70
2018-12-16T11:09:28.948Z,0.70
2018-12-16T11:11:57.696Z,0.70
2018-12-16T11:14:26.478Z,0.70
2018-12-16T11:16:55.385Z,0.70
2018-12-16T11:19:24.192Z,0.70
2018-12-16T11:21:52.909Z,0.70
2018-12-16T11:24:21.731Z,0.70
2018-12-16T11:26:50.469Z,0.80
2018-12-16T11:29:19.235Z,0.70
2018-12-16T11:31:47.915Z,0.70
2018-12-16T11:34:16.665Z,0.70
2018-12-16T11:36:45.444Z,0.70
2018-12-16T11:39:14.297Z,0.70
2018-12-16T11:41:43.047Z,0.70
2018-12-16T11:44:11.911Z,0.70
2018-12-16T11:46:40.671Z,0.70
2018-12-16T11:49:09.370Z,0.70
2018-12-16T11:51:38.327Z,0.70
2018-12-16T11:54:07.161Z,0.70
2018-12-16T11:56:35.854Z,0.70
2018-12-16T11:59:04.600Z,0.70
2018-12-16T12:01:33.438Z,0.70
2018-12-16T12:04:04.740Z,0.70
2018-12-16T12:06:33.683Z,0.70
2018-12-16T12:09:02.337Z,0.70
2018-12-16T12:11:31.052Z,0.70
2018-12-16T12:13:59.845Z,0.70
2018-12-16T12:16:28.500Z,0.70
2018-12-16T12:19:00.689Z,0.70
2018-12-16T12:21:29.455Z,0.70
2018-12-16T12:23:58.171Z,0.70
2018-12-16T12:26:26.902Z,0.70
2018-12-16T12:28:55.647Z,0.70
2018-12-16T12:31:24.713Z,0.70
2018-12-16T12:33:53.411Z,0.70
2018-12-16T12:36:22.275Z,0.70
2018-12-16T12:38:51.095Z,0.70
2018-12-16T12:41:19.838Z,0.70
2018-12-16T12:43:48.637Z,0.80
2018-12-16T12:46:17.414Z,0.80
2018-12-16T12:48:46.118Z,0.80
2018-12-16T12:51:14.829Z,0.80
2018-12-16T12:53:43.603Z,0.70
2018-12-16T12:56:12.367Z,0.80
2018-12-16T12:58:41.147Z,0.80
2018-12-16T13:01:09.832Z,0.70
2018-12-16T13:03:38.541Z,0.70
2018-12-16T13:06:07.368Z,0.70
2018-12-16T13:08:36.094Z,0.70
2018-12-16T13:11:04.804Z,0.70
2018-12-16T13:13:33.586Z,0.70
2018-12-16T13:16:02.400Z,0.70
2018-12-16T13:18:31.250Z,0.80
2018-12-16T13:20:59.971Z,0.70
2018-12-16T13:23:28.689Z,0.70
2018-12-16T13:26:04.791Z,0.70
2018-12-16T13:28:33.596Z,0.70
2018-12-16T13:31:02.325Z,0.70
2018-12-16T13:33:31.054Z,0.80
2018-12-16T13:35:59.958Z,0.70
2018-12-16T13:38:28.823Z,0.70
2018-12-16T13:40:57.542Z,0.70
2018-12-16T13:43:26.266Z,0.70
2018-12-16T13:45:55.196Z,0.70
2018-12-16T13:48:23.917Z,0.70
2018-12-16T13:50:52.635Z,0.70
2018-12-16T13:53:21.382Z,0.70
2018-12-16T13:55:50.137Z,0.60
2018-12-16T13:58:18.951Z,0.60
2018-12-16T14:00:47.663Z,0.60
2018-12-16T14:03:16.476Z,0.60
2018-12-16T14:05:46.797Z,0.70
2018-12-16T14:08:16.014Z,0.70
2018-12-16T14:10:44.931Z,0.70
2018-12-16T14:13:13.662Z,0.60
2018-12-16T14:15:42.563Z,0.60
2018-12-16T14:18:11.366Z,0.60
2018-12-16T14:20:40.141Z,0.50
2018-12-16T14:23:08.875Z,0.50
2018-12-16T14:25:37.593Z,0.50
2018-12-16T14:28:06.370Z,0.60
2018-12-16T14:30:35.147Z,0.60
2018-12-16T14:33:03.883Z,0.60
2018-12-16T14:35:32.654Z,0.60
2018-12-16T14:38:01.506Z,0.50
2018-12-16T14:40:30.281Z,0.60
2018-12-16T14:42:59.016Z,0.60
2018-12-16T14:45:27.851Z,0.60
2018-12-16T14:47:56.575Z,0.60
2018-12-16T14:50:25.375Z,0.60
2018-12-16T14:52:54.153Z,0.60
2018-12-16T14:55:23.050Z,0.60
2018-12-16T14:57:51.816Z,0.60
2018-12-16T15:00:20.657Z,0.60
2018-12-16T15:02:49.351Z,0.60
2018-12-16T15:05:18.091Z,0.60
2018-12-16T15:07:46.935Z,0.50
2018-12-16T15:10:15.675Z,0.60
2018-12-16T15:12:44.465Z,0.60
2018-12-16T15:15:13.757Z,0.60
2018-12-16T15:17:42.873Z,0.50
2018-12-16T15:20:12.050Z,0.50
2018-12-16T15:22:40.770Z,0.50
2018-12-16T15:25:09.562Z,0.50
2018-12-16T15:27:38.334Z,0.50
2018-12-16T15:30:09.290Z,0.60
2018-12-16T15:32:37.986Z,0.50
2018-12-16T15:35:06.802Z,0.50
2018-12-16T15:37:35.502Z,0.50
2018-12-16T15:40:06.367Z,0.40
2018-12-16T15:42:35.218Z,0.50
2018-12-16T15:45:05.191Z,0.50
2018-12-16T15:47:34.130Z,0.40
2018-12-16T15:50:02.942Z,0.40
2018-12-16T15:52:31.718Z,0.40
2018-12-16T15:55:00.382Z,0.40
2018-12-16T15:57:29.184Z,0.30
2018-12-16T15:59:57.886Z,0.40
2018-12-16T16:02:26.632Z,0.40
2018-12-16T16:04:55.364Z,0.40
2018-12-16T16:07:24.120Z,0.40
2018-12-16T16:09:52.912Z,0.40
2018-12-16T16:12:21.753Z,0.40
2018-12-16T16:14:50.570Z,0.30
2018-12-16T16:17:19.330Z,0.30
2018-12-16T16:19:48.193Z,0.40
2018-12-16T16:22:16.895Z,0.40
2018-12-16T16:24:45.633Z,0.40
2018-12-16T16:27:14.337Z,0.40
2018-12-16T16:29:43.466Z,0.40
2018-12-16T16:32:12.167Z,0.40
2018-12-16T16:34:40.954Z,0.40
2018-12-16T16:37:09.820Z,0.40
2018-12-16T16:39:38.544Z,0.40
2018-12-16T16:42:07.220Z,0.40
2018-12-16T16:44:35.967Z,0.40
2018-12-16T16:47:04.784Z,0.40
2018-12-16T16:49:33.691Z,0.40
2018-12-16T16:52:02.578Z,0.40
2018-12-16T16:54:31.358Z,0.40
2018-12-16T16:57:00.135Z,0.40
2018-12-16T16:59:28.944Z,0.40
2018-12-16T17:01:57.697Z,0.40
2018-12-16T17:04:26.431Z,0.40
2018-12-16T17:06:55.116Z,0.40
2018-12-16T17:09:23.781Z,0.40
2018-12-16T17:11:52.523Z,0.40
2018-12-16T17:14:21.301Z,0.40
2018-12-16T17:16:50.121Z,0.40
2018-12-16T17:19:19.410Z,0.40
2018-12-16T17:21:48.196Z,0.30
2018-12-16T17:24:16.952Z,0.30
2018-12-16T17:26:45.634Z,0.40
2018-12-16T17:29:14.425Z,0.30
2018-12-16T17:31:43.118Z,0.30
2018-12-16T17:34:11.832Z,0.30
2018-12-16T17:36:40.696Z,0.30
2018-12-16T17:39:09.664Z,0.30
2018-12-16T17:41:38.446Z,0.30
2018-12-16T17:44:07.281Z,0.30
2018-12-16T17:46:35.981Z,0.20
2018-12-16T17:49:04.825Z,0.30
2018-12-16T17:51:33.621Z,0.20
2018-12-16T17:54:02.322Z,0.20
2018-12-16T17:56:36.958Z,0.20
2018-12-16T17:59:01.930Z,0.20
2018-12-16T18:01:31.514Z,0.20
2018-12-16T18:04:00.157Z,0.20
2018-12-16T18:06:28.939Z,0.20
2018-12-16T18:08:57.648Z,0.20
2018-12-16T18:11:26.411Z,0.20
2018-12-16T18:13:55.153Z,0.10
2018-12-16T18:16:23.932Z,0.10
2018-12-16T18:18:52.717Z,0.10
2018-12-16T18:21:21.403Z,0.10
2018-12-16T18:23:50.127Z,0.10
2018-12-16T18:26:18.834Z,0.10
2018-12-16T18:28:47.603Z,0.10
2018-12-16T18:31:16.405Z,0.10
2018-12-16T18:33:45.181Z,0.10
2018-12-16T18:36:13.986Z,0.10
2018-12-16T18:38:42.791Z,0.10
2018-12-16T18:41:11.564Z,0.10
2018-12-16T18:43:40.337Z,0.10
2018-12-16T18:46:09.058Z,0.10
2018-12-16T18:48:37.792Z,0.10
2018-12-16T18:51:06.625Z,0.10
2018-12-16T18:53:35.379Z,0.20
2018-12-16T18:56:04.212Z,0.10
2018-12-16T18:58:33.003Z,0.10
2018-12-16T19:01:01.750Z,0.10
2018-12-16T19:03:30.612Z,0.10
2018-12-16T19:05:59.351Z,0.20
2018-12-16T19:08:28.076Z,0.20
2018-12-16T19:10:56.888Z,0.20
2018-12-16T19:13:25.689Z,0.20
2018-12-16T19:15:54.356Z,0.10
2018-12-16T19:18:24.909Z,0.10
2018-12-16T19:20:53.892Z,0.10
2018-12-16T19:23:22.695Z,0.20
2018-12-16T19:25:51.430Z,0.20
2018-12-16T19:28:20.160Z,0.20
2018-12-16T19:30:48.940Z,0.10
2018-12-16T19:33:17.695Z,0.10
2018-12-16T19:35:46.499Z,0.20
2018-12-16T19:38:15.296Z,0.20
2018-12-16T19:40:44.059Z,0.20
2018-12-16T19:43:12.752Z,0.20
2018-12-16T19:45:41.538Z,0.20
2018-12-16T19:48:10.356Z,0.10
2018-12-16T19:50:39.168Z,0.10
2018-12-16T19:53:07.908Z,0.10
2018-12-16T19:55:36.654Z,0.20
2018-12-16T19:58:05.432Z,0.20
2018-12-16T20:00:34.104Z,0.20
2018-12-16T20:03:02.926Z,0.20
2018-12-16T20:05:33.722Z,0.20
2018-12-16T20:08:02.410Z,0.20
2018-12-16T20:10:31.205Z,0.20
2018-12-16T20:12:59.871Z,0.10
2018-12-16T20:15:28.591Z,0.20
2018-12-16T20:17:57.270Z,0.20
2018-12-16T20:20:26.158Z,0.20
2018-12-16T20:22:54.924Z,0.20
2018-12-16T20:25:23.659Z,0.20
2018-12-16T20:27:52.464Z,0.20
2018-12-16T20:30:21.271Z,0.20
2018-12-16T20:32:49.936Z,0.20
2018-12-16T20:35:19.009Z,0.20
2018-12-16T20:37:48.151Z,0.10
2018-12-16T20:40:16.863Z,0.00
2018-12-16T20:42:45.687Z,0.10
2018-12-16T20:45:14.485Z,0.00
2018-12-16T20:47:43.263Z,0.00
2018-12-16T20:50:11.990Z,0.00
2018-12-16T20:52:40.754Z,0.10
2018-12-16T20:55:09.527Z,0.00
2018-12-16T20:57:38.272Z,0.00
2018-12-16T21:00:08.776Z,0.00
2018-12-16T21:02:37.526Z,0.00
2018-12-16T21:05:06.602Z,0.00
2018-12-16T21:07:35.444Z,-0.10
2018-12-16T21:10:05.308Z,-0.10
2018-12-16T21:12:39.626Z,0.00
2018-12-16T21:15:13.954Z,0.00
2018-12-16T21:17:48.314Z,-0.10
2018-12-16T21:20:17.088Z,0.00
2018-12-16T21:22:45.972Z,0.00
2018-12-16T21:25:14.749Z,0.00
2018-12-16T21:27:43.501Z,-0.10
2018-12-16T21:30:13.161Z,-0.10
2018-12-16T21:32:41.851Z,-0.10
2018-12-16T21:35:10.554Z,-0.10
2018-12-16T21:37:39.332Z,-0.10
2018-12-16T21:40:08.114Z,-0.10
2018-12-16T21:42:36.784Z,0.00
2018-12-16T21:45:05.672Z,0.00
2018-12-16T21:47:34.582Z,0.00
2018-12-16T21:50:03.424Z,-0.10
2018-12-16T21:52:32.147Z,-0.10
2018-12-16T21:55:00.856Z,-0.10
2018-12-16T21:57:32.953Z,-0.10
2018-12-16T22:00:00.486Z,-0.10
2018-12-16T22:02:29.188Z,-0.10
2018-12-16T22:04:57.910Z,-0.10
2018-12-16T22:07:26.678Z,-0.10
2018-12-16T22:09:55.398Z,-0.10
2018-12-16T22:12:24.155Z,-0.10
2018-12-16T22:14:53.011Z,-0.10
2018-12-16T22:17:21.760Z,-0.10
2018-12-16T22:19:50.625Z,-0.10
2018-12-16T22:22:19.296Z,-0.10
2018-12-16T22:24:48.040Z,-0.10
2018-12-16T22:27:16.846Z,-0.10
2018-12-16T22:29:45.824Z,-0.10
2018-12-16T22:32:14.550Z,-0.10
2018-12-16T22:34:43.221Z,-0.10
2018-12-16T22:37:12.158Z,-0.10
2018-12-16T22:39:40.847Z,-0.10
2018-12-16T22:42:09.543Z,-0.10
2018-12-16T22:44:38.390Z,-0.10
2018-12-16T22:47:07.387Z,-0.10
2018-12-16T22:49:36.236Z,-0.10
2018-12-16T22:52:04.986Z,-0.10
2018-12-16T22:54:33.841Z,-0.20
2018-12-16T22:57:02.526Z,-0.20
2018-12-16T22:59:31.278Z,-0.20
2018-12-16T23:02:00.178Z,-0.20
2018-12-16T23:04:28.964Z,-0.20
2018-12-16T23:06:57.763Z,-0.10
2018-12-16T23:09:26.606Z,-0.10
2018-12-16T23:11:55.429Z,0.00
2018-12-16T23:14:24.156Z,-0.10
2018-12-16T23:16:52.936Z,-0.10
2018-12-16T23:19:21.767Z,-0.10
2018-12-16T23:21:50.584Z,-0.10
2018-12-16T23:24:19.322Z,-0.10
2018-12-16T23:26:48.132Z,-0.10
2018-12-16T23:29:16.910Z,-0.10
2018-12-16T23:31:45.749Z,-0.10
2018-12-16T23:34:14.485Z,0.00
2018-12-16T23:36:43.227Z,-0.10
2018-12-16T23:39:11.963Z,-0.10
2018-12-16T23:41:40.811Z,-0.10
2018-12-16T23:44:09.492Z,0.00
2018-12-16T23:46:38.214Z,0.00
2018-12-16T23:49:06.889Z,0.00
2018-12-16T23:51:35.554Z,0.00
2018-12-16T23:54:04.355Z,0.00
2018-12-16T23:56:33.068Z,0.00
2018-12-16T23:59:01.814Z,0.00
